Time;durP1;ratioP1;P1;durP2;ratioP2;P2;SDS_P1;SDS_P2;PMS_P1;PMS_P2;Temp;Humidity;BMP_temperature;BMP_pressure;BME280_temperature;BME280_humidity;BME280_pressure;Samples;Min_cycle;Max_cycle;Signal;HPM_P1;HPM_P2
2022/07/16 04:01:20;;;;;;;4.80;4.30;;;15.60;95.00;;;;;;5707468;22;20706;-68
2022/07/16 04:03:47;;;;;;;4.70;3.90;;;15.50;95.30;;;;;;5073818;28;20457;-67
2022/07/16 04:06:13;;;;;;;5.77;4.67;;;15.50;95.50;;;;;;5073526;28;20454;-66
2022/07/16 04:08:40;;;;;;;5.30;4.80;;;15.60;96.40;;;;;;5073829;28;20461;-66
2022/07/16 04:11:07;;;;;;;6.73;4.00;;;15.60;97.20;;;;;;5073394;28;21018;-67
2022/07/16 04:13:34;;;;;;;6.40;4.60;;;15.70;97.40;;;;;;5073725;28;20446;-67
2022/07/16 04:16:01;;;;;;;4.47;4.17;;;15.70;97.80;;;;;;5073710;28;20450;-67
2022/07/16 04:18:29;;;;;;;4.80;4.40;;;15.70;97.30;;;;;;5073527;28;20461;-66
2022/07/16 04:20:55;;;;;;;4.50;4.10;;;15.80;97.50;;;;;;5073747;28;20473;-65
2022/07/16 04:23:22;;;;;;;4.17;3.87;;;15.80;97.90;;;;;;5073798;28;20449;-66
2022/07/16 04:25:49;;;;;;;4.30;3.90;;;15.90;97.70;;;;;;5073514;28;20453;-66
2022/07/16 04:28:15;;;;;;;4.13;3.83;;;15.90;98.10;;;;;;5073992;28;20450;-66
2022/07/16 04:30:42;;;;;;;4.33;4.03;;;15.90;98.40;;;;;;5076652;28;20891;-66
2022/07/16 04:33:09;;;;;;;5.77;5.27;;;15.90;98.60;;;;;;5077262;28;20454;-67
2022/07/16 04:35:37;;;;;;;6.13;5.57;;;16.00;99.00;;;;;;5077795;28;20453;-67
2022/07/16 04:38:04;;;;;;;5.83;5.33;;;16.00;98.50;;;;;;5077377;28;20461;-67
2022/07/16 04:40:31;;;;;;;6.17;5.57;;;16.00;98.80;;;;;;5077591;28;20469;-66
2022/07/16 04:42:57;;;;;;;11.40;5.80;;;15.90;99.00;;;;;;5077388;28;20449;-67
2022/07/16 04:45:24;;;;;;;7.57;5.60;;;16.00;99.30;;;;;;5077234;28;20449;-66
2022/07/16 04:47:51;;;;;;;6.00;5.50;;;16.00;99.80;;;;;;5077309;28;20457;-67
2022/07/16 04:50:17;;;;;;;6.87;6.07;;;16.00;99.90;;;;;;5077263;28;20478;-67
2022/07/16 04:52:46;;;;;;;6.40;5.70;;;16.00;99.90;;;;;;5076931;28;20474;-66
2022/07/16 04:55:12;;;;;;;6.53;5.93;;;16.00;99.90;;;;;;5077261;28;20456;-67
2022/07/16 04:57:39;;;;;;;6.53;5.70;;;16.10;99.90;;;;;;5076957;28;20453;-66
2022/07/16 05:00:07;;;;;;;5.87;5.37;;;16.10;99.70;;;;;;5077095;28;20460;-67
2022/07/16 05:05:19;;;;;;;7.23;5.70;;;16.20;99.10;;;;;;5077015;28;20477;-66
2022/07/16 05:07:48;;;;;;;5.60;5.10;;;16.30;98.40;;;;;;5076569;28;20548;-66
2022/07/16 05:10:15;;;;;;;5.37;4.90;;;16.30;98.20;;;;;;5076576;28;20565;-66
2022/07/16 05:12:42;;;;;;;6.00;5.50;;;16.40;97.90;;;;;;5076839;28;20458;-66
2022/07/16 05:15:09;;;;;;;6.87;6.10;;;16.40;98.00;;;;;;5076807;28;20454;-66
2022/07/16 05:17:36;;;;;;;7.23;6.40;;;16.40;98.30;;;;;;5076524;28;20465;-66
2022/07/16 05:20:03;;;;;;;9.03;6.70;;;16.50;99.00;;;;;;5077824;28;20865;-66
2022/07/16 05:22:31;;;;;;;6.43;5.93;;;16.50;99.60;;;;;;5077774;28;20481;-66
2022/07/16 05:24:59;;;;;;;11.73;7.43;;;16.60;99.80;;;;;;5077481;28;20450;-66
2022/07/16 05:27:25;;;;;;;7.13;6.33;;;16.60;99.00;;;;;;5077414;28;20453;-66
2022/07/16 05:29:52;;;;;;;6.37;5.87;;;16.60;98.00;;;;;;5077391;28;20457;-66
2022/07/16 05:32:19;;;;;;;5.87;5.30;;;16.70;97.00;;;;;;5077174;28;20482;-66
2022/07/16 05:34:45;;;;;;;5.90;5.37;;;16.70;96.90;;;;;;5076838;28;20455;-66
2022/07/16 05:37:12;;;;;;;5.93;5.50;;;16.80;97.30;;;;;;5077042;28;20454;-66
2022/07/16 05:39:39;;;;;;;10.33;6.13;;;16.90;97.60;;;;;;5076785;28;20458;-66
2022/07/16 05:42:07;;;;;;;6.53;5.93;;;17.10;96.40;;;;;;5076465;28;20535;-66
2022/07/16 05:44:34;;;;;;;11.80;6.27;;;17.20;96.10;;;;;;5077002;28;20458;-66
2022/07/16 05:47:00;;;;;;;8.40;6.37;;;17.40;96.10;;;;;;5076862;28;20450;-66
2022/07/16 05:49:27;;;;;;;6.17;5.57;;;17.60;95.60;;;;;;5076431;28;20450;-67
2022/07/16 05:51:54;;;;;;;6.27;5.67;;;17.70;95.80;;;;;;5076673;28;20482;-66
2022/07/16 05:54:20;;;;;;;5.00;4.70;;;17.90;94.60;;;;;;5076691;28;20457;-66
2022/07/16 05:56:47;;;;;;;6.60;5.37;;;18.10;92.60;;;;;;5076763;28;21002;-66
2022/07/16 05:59:15;;;;;;;8.50;5.20;;;18.10;91.30;;;;;;5076369;28;20963;-66
2022/07/16 06:01:42;;;;;;;8.53;5.33;;;18.30;91.50;;;;;;5076066;28;20478;-66
2022/07/16 06:04:09;;;;;;;6.10;5.60;;;18.40;91.30;;;;;;5076214;28;20937;-66
2022/07/16 06:06:36;;;;;;;7.30;5.90;;;18.60;91.60;;;;;;5076101;28;20462;-66
2022/07/16 06:09:03;;;;;;;5.83;5.30;;;18.70;91.80;;;;;;5075298;28;20450;-66
2022/07/16 06:11:29;;;;;;;5.83;5.27;;;18.90;91.00;;;;;;5075728;28;20527;-67
2022/07/16 06:13:56;;;;;;;8.40;5.80;;;19.00;91.60;;;;;;5075737;28;20450;-66
2022/07/16 06:16:24;;;;;;;6.00;5.50;;;19.20;91.00;;;;;;5075827;28;20535;-67
2022/07/16 06:18:51;;;;;;;6.13;5.63;;;19.30;90.50;;;;;;5075714;28;20450;-67
2022/07/16 06:21:17;;;;;;;6.30;5.80;;;19.50;90.20;;;;;;5075052;28;20804;-66
2022/07/16 06:23:44;;;;;;;8.30;5.77;;;19.80;89.50;;;;;;5075316;28;20454;-67
2022/07/16 06:26:11;;;;;;;6.20;5.60;;;20.00;89.00;;;;;;5075426;28;20450;-67
2022/07/16 06:28:38;;;;;;;9.07;5.80;;;20.10;87.60;;;;;;5075691;28;20462;-67
2022/07/16 06:31:04;;;;;;;7.00;5.30;;;20.30;87.00;;;;;;5075724;28;20480;-66
2022/07/16 06:33:32;;;;;;;7.30;5.53;;;20.50;86.50;;;;;;5075675;28;20454;-66
2022/07/16 06:35:59;;;;;;;5.67;4.57;;;20.50;85.90;;;;;;5076211;28;20446;-66
2022/07/16 06:38:26;;;;;;;8.30;5.47;;;20.60;85.60;;;;;;5075924;28;20473;-66
2022/07/16 06:40:52;;;;;;;6.60;5.13;;;20.80;87.10;;;;;;5076002;28;20473;-66
2022/07/16 06:43:19;;;;;;;5.80;5.27;;;21.00;85.80;;;;;;5077839;28;20449;-66
2022/07/16 06:45:46;;;;;;;5.13;4.73;;;21.20;86.00;;;;;;5078851;28;20450;-66
2022/07/16 06:48:13;;;;;;;5.83;4.97;;;21.40;81.80;;;;;;5075424;28;20454;-66
2022/07/16 06:50:41;;;;;;;9.30;5.07;;;21.50;81.90;;;;;;5075153;28;20513;-66
2022/07/16 06:53:08;;;;;;;4.17;3.87;;;21.80;80.70;;;;;;5074399;28;20451;-67
2022/07/16 06:55:35;;;;;;;4.73;4.33;;;22.00;77.00;;;;;;5075019;28;20457;-67
2022/07/16 06:58:01;;;;;;;6.43;3.60;;;22.30;73.90;;;;;;5074961;28;20476;-67
2022/07/16 07:00:28;;;;;;;4.00;3.70;;;22.60;70.60;;;;;;5074209;28;20454;-66
2022/07/16 07:02:55;;;;;;;3.90;3.50;;;23.10;69.40;;;;;;5074783;28;20443;-67
2022/07/16 07:05:22;;;;;;;3.93;3.63;;;23.50;69.10;;;;;;5074703;28;20454;-67
2022/07/16 07:07:50;;;;;;;3.50;3.20;;;24.00;66.80;;;;;;5074581;28;20454;-67
2022/07/16 07:10:19;;;;;;;3.07;2.87;;;24.60;61.50;;;;;;5075422;28;20458;-66
2022/07/16 07:12:46;;;;;;;4.13;3.80;;;25.30;60.90;;;;;;5075620;28;20474;-68
2022/07/16 07:15:13;;;;;;;3.80;3.50;;;25.80;58.90;;;;;;5076401;28;20478;-68
2022/07/16 07:17:39;;;;;;;4.13;3.73;;;26.20;57.90;;;;;;5076536;28;20504;-68
2022/07/16 07:20:07;;;;;;;3.60;3.20;;;26.50;58.10;;;;;;5077386;28;20800;-68
2022/07/16 07:22:34;;;;;;;4.57;4.10;;;26.70;58.90;;;;;;5074928;28;20500;-68
2022/07/16 07:25:02;;;;;;;4.77;3.37;;;27.00;57.00;;;;;;5074299;28;20450;-67
2022/07/16 07:27:29;;;;;;;7.40;4.40;;;27.30;55.30;;;;;;5074385;28;20460;-67
2022/07/16 07:29:55;;;;;;;3.40;3.10;;;27.60;57.50;;;;;;5074173;28;20541;-67
2022/07/16 07:32:22;;;;;;;3.77;2.70;;;27.90;56.20;;;;;;5073893;28;20482;-67
2022/07/16 07:34:49;;;;;;;3.13;2.83;;;28.40;53.50;;;;;;5074085;28;20450;-66
2022/07/16 07:37:16;;;;;;;3.03;2.80;;;28.70;53.00;;;;;;5074544;28;20450;-66
2022/07/16 07:39:43;;;;;;;2.43;2.23;;;29.10;52.50;;;;;;5074004;28;20450;-66
2022/07/16 07:42:12;;;;;;;2.43;2.23;;;29.20;49.70;;;;;;5074177;28;20470;-66
2022/07/16 07:44:39;;;;;;;3.43;3.00;;;29.00;50.10;;;;;;5073865;28;20445;-67
2022/07/16 07:47:06;;;;;;;3.57;2.90;;;28.80;50.90;;;;;;5073896;28;20815;-66
2022/07/16 07:49:32;;;;;;;4.00;2.70;;;29.40;50.90;;;;;;5074084;28;20488;-66
2022/07/16 07:51:59;;;;;;;4.57;2.90;;;29.80;48.90;;;;;;5073730;28;20482;-67
2022/07/16 07:54:26;;;;;;;6.33;2.90;;;29.90;51.40;;;;;;5073438;28;21009;-67
2022/07/16 07:56:53;;;;;;;3.47;2.40;;;30.10;48.00;;;;;;5073801;28;20799;-67
2022/07/16 07:59:22;;;;;;;3.13;2.20;;;30.10;47.60;;;;;;5073285;28;21015;-67
2022/07/16 08:01:48;;;;;;;3.57;2.93;;;29.80;47.70;;;;;;5073364;28;20477;-67
2022/07/16 08:04:15;;;;;;;7.60;2.90;;;29.20;47.90;;;;;;5075790;28;20458;-66
2022/07/16 08:06:42;;;;;;;3.30;2.43;;;28.90;49.30;;;;;;5077871;28;20449;-66
2022/07/16 08:09:09;;;;;;;2.80;2.47;;;28.50;49.10;;;;;;5077729;28;20450;-67
2022/07/16 08:11:35;;;;;;;2.40;2.20;;;28.90;49.00;;;;;;5078038;28;20478;-66
2022/07/16 08:14:02;;;;;;;2.70;2.37;;;29.30;48.60;;;;;;5078039;28;20940;-67
2022/07/16 08:16:30;;;;;;;3.23;2.60;;;29.70;47.80;;;;;;5077833;28;20457;-67
2022/07/16 08:18:57;;;;;;;3.03;2.53;;;30.00;47.60;;;;;;5077940;28;20465;-67
2022/07/16 08:21:24;;;;;;;3.37;3.07;;;30.50;47.70;;;;;;5077930;28;20470;-67
2022/07/16 08:26:35;;;;;;;3.03;2.03;;;31.50;46.50;;;;;;5077626;28;20428;-67
2022/07/16 08:29:02;;;;;;;2.43;2.10;;;31.80;44.70;;;;;;5077601;28;20456;-67
2022/07/16 08:31:30;;;;;;;4.83;2.10;;;32.30;43.00;;;;;;5077118;28;20485;-67
2022/07/16 08:33:56;;;;;;;2.80;1.77;;;32.50;41.90;;;;;;5077392;28;20457;-67
2022/07/16 08:36:23;;;;;;;2.90;1.80;;;32.70;41.40;;;;;;5077395;28;20454;-67
2022/07/16 08:38:50;;;;;;;2.37;2.20;;;32.70;41.10;;;;;;5077677;28;20767;-67
2022/07/16 08:41:18;;;;;;;2.93;2.60;;;32.30;41.40;;;;;;5076693;28;20867;-67
2022/07/16 08:43:45;;;;;;;5.57;2.90;;;31.50;42.70;;;;;;5077015;28;20452;-67
2022/07/16 08:46:14;;;;;;;4.40;3.00;;;31.50;44.30;;;;;;5077017;28;20460;-66
2022/07/16 08:48:42;;;;;;;7.00;2.77;;;31.40;43.30;;;;;;5076617;28;20450;-67
2022/07/16 08:51:10;;;;;;;3.00;2.70;;;31.50;45.20;;;;;;5076660;28;20481;-67
2022/07/16 08:53:37;;;;;;;3.03;2.67;;;31.80;44.90;;;;;;5076758;28;20507;-67
2022/07/16 08:56:05;;;;;;;3.53;2.50;;;32.30;42.60;;;;;;5076843;28;20477;-67
2022/07/16 08:58:32;;;;;;;3.60;2.53;;;32.50;42.60;;;;;;5076654;28;20461;-67
2022/07/16 09:00:59;;;;;;;2.20;2.00;;;32.50;42.20;;;;;;5076131;28;20520;-68
2022/07/16 09:03:26;;;;;;;3.07;1.73;;;31.90;42.00;;;;;;5076469;28;20446;-68
2022/07/16 09:05:55;;;;;;;4.60;1.83;;;31.90;41.80;;;;;;5076623;28;20450;-67
2022/07/16 09:08:22;;;;;;;2.93;2.00;;;32.10;41.90;;;;;;5076153;28;20941;-68
2022/07/16 09:10:49;;;;;;;3.00;1.60;;;32.50;41.50;;;;;;5076198;28;20585;-67
2022/07/16 09:13:16;;;;;;;2.20;1.70;;;32.60;40.10;;;;;;5076174;28;21006;-67
2022/07/16 09:15:44;;;;;;;2.37;1.63;;;32.20;39.70;;;;;;5075751;28;20991;-68
2022/07/16 09:18:20;;;;;;;2.83;2.03;;;31.90;40.80;;;;;;5077436;28;20450;-67
2022/07/16 09:20:50;;;;;;;1.77;1.30;;;31.70;41.10;;;;;;5076548;28;20496;-68
2022/07/16 09:23:30;;;;;;;3.20;1.70;;;31.90;40.30;;;;;;5077497;28;20457;-68
2022/07/16 09:25:58;;;;;;;1.70;1.60;;;32.00;40.00;;;;;;5077505;28;20442;-67
2022/07/16 09:28:26;;;;;;;2.00;1.53;;;32.10;40.00;;;;;;5076888;28;20450;-68
2022/07/16 09:30:53;;;;;;;1.50;1.40;;;32.30;39.50;;;;;;5076710;28;20553;-67
2022/07/16 09:33:22;;;;;;;1.97;1.37;;;32.30;39.50;;;;;;5076304;28;20473;-68
2022/07/16 09:36:04;;;;;;;1.70;1.60;;;32.50;39.70;;;;;;5076659;28;20457;-70
2022/07/16 09:38:45;;;;;;;2.50;1.50;;;32.60;39.40;;;;;;5076887;28;20442;-68
2022/07/16 09:41:13;;;;;;;3.77;1.90;;;32.70;39.00;;;;;;5076019;28;20470;-68
2022/07/16 09:43:42;;;;;;;2.30;1.53;;;32.40;39.10;;;;;;5076647;28;20446;-68
2022/07/16 09:46:15;;;;;;;2.63;2.00;;;32.20;40.90;;;;;;5077291;28;20454;-67
2022/07/16 09:48:44;;;;;;;2.30;1.70;;;32.20;39.80;;;;;;5076338;28;20438;-69
2022/07/16 09:51:16;;;;;;;5.13;1.80;;;32.80;39.30;;;;;;5076489;28;20474;-67
2022/07/16 09:53:46;;;;;;;3.27;1.50;;;33.10;38.00;;;;;;5077254;28;20831;-67
2022/07/16 09:56:15;;;;;;;2.00;1.60;;;33.20;39.40;;;;;;5076333;28;20447;-67
2022/07/16 09:58:47;;;;;;;2.83;1.40;;;33.70;38.80;;;;;;5075836;28;20450;-68
2022/07/16 10:01:14;;;;;;;2.67;1.90;;;34.20;37.60;;;;;;5075846;28;20556;-68
2022/07/16 10:03:41;;;;;;;3.30;1.57;;;34.50;37.90;;;;;;5076034;28;20575;-67
2022/07/16 10:06:08;;;;;;;3.63;1.50;;;34.90;36.20;;;;;;5075795;28;20901;-67
2022/07/16 10:08:35;;;;;;;2.33;2.00;;;34.80;36.70;;;;;;5075946;28;20485;-65
2022/07/16 10:11:04;;;;;;;2.47;1.80;;;35.40;37.40;;;;;;5075435;28;20840;-67
2022/07/16 10:13:33;;;;;;;2.40;1.80;;;35.50;36.30;;;;;;5075797;28;20474;-67
2022/07/16 10:16:00;;;;;;;1.97;1.30;;;35.60;36.90;;;;;;5076097;28;20449;-68
2022/07/16 10:18:39;;;;;;;1.73;1.63;;;35.00;36.30;;;;;;5075078;28;20465;-67
2022/07/16 10:21:09;;;;;;;1.93;1.83;;;35.40;35.80;;;;;;5075865;28;20473;-67
2022/07/16 10:23:37;;;;;;;2.57;1.67;;;35.30;35.70;;;;;;5076041;28;20442;-67
2022/07/16 10:26:07;;;;;;;2.07;1.97;;;34.30;35.00;;;;;;5075771;28;20564;-67
2022/07/16 10:28:39;;;;;;;2.10;1.30;;;34.40;35.80;;;;;;5074746;28;20434;-67
2022/07/16 10:31:38;;;;;;;2.33;1.70;;;34.50;37.10;;;;;;5075651;28;20868;-68
2022/07/16 10:34:32;;;;;;;2.10;1.53;;;34.90;35.90;;;;;;5075535;28;20967;-68
2022/07/16 10:36:59;;;;;;;1.70;1.60;;;34.90;35.80;;;;;;5075711;28;20983;-67
2022/07/16 10:39:28;;;;;;;3.57;1.60;;;35.00;36.80;;;;;;5075271;28;20449;-67
2022/07/16 10:41:59;;;;;;;2.23;1.70;;;34.90;35.40;;;;;;5078861;28;20472;-67
2022/07/16 10:44:27;;;;;;;1.73;1.40;;;35.00;37.80;;;;;;5082343;28;20913;-68
2022/07/16 10:46:55;;;;;;;1.93;1.50;;;35.10;34.80;;;;;;5079335;28;20445;-68
2022/07/16 10:49:23;;;;;;;2.70;1.60;;;34.70;36.40;;;;;;5075886;28;20514;-67
2022/07/16 10:52:00;;;;;;;1.80;1.60;;;34.80;34.60;;;;;;5075252;28;20523;-68
2022/07/16 10:54:29;;;;;;;2.40;1.77;;;34.80;35.10;;;;;;5075616;28;20438;-67
2022/07/16 10:56:59;;;;;;;2.20;1.47;;;34.70;34.60;;;;;;5075240;28;20859;-68
2022/07/16 10:59:28;;;;;;;2.13;1.80;;;35.20;35.90;;;;;;5074920;28;20928;-68
2022/07/16 11:01:56;;;;;;;2.23;1.57;;;35.20;35.60;;;;;;5074531;28;20483;-67
2022/07/16 11:04:31;;;;;;;3.13;1.90;;;35.40;34.40;;;;;;5077043;28;20458;-67
2022/07/16 11:06:59;;;;;;;2.20;1.50;;;35.50;34.40;;;;;;5075217;28;20524;-67
2022/07/16 11:09:28;;;;;;;1.33;1.30;;;35.30;35.40;;;;;;5074827;28;20460;-67
2022/07/16 11:12:06;;;;;;;3.07;2.30;;;35.30;34.70;;;;;;5074911;28;20972;-66
2022/07/16 11:14:33;;;;;;;1.73;1.60;;;35.50;34.50;;;;;;5074721;28;20943;-66
2022/07/16 11:16:59;;;;;;;2.33;1.80;;;35.30;34.80;;;;;;5074730;28;20853;-67
2022/07/16 11:19:26;;;;;;;2.23;1.70;;;35.10;34.80;;;;;;5075467;28;20994;-67
2022/07/16 11:21:57;;;;;;;1.73;1.63;;;35.00;34.80;;;;;;5074660;28;20999;-67
2022/07/16 11:24:25;;;;;;;2.60;1.60;;;34.80;36.70;;;;;;5075907;28;20449;-67
2022/07/16 11:26:52;;;;;;;2.60;1.97;;;34.70;35.60;;;;;;5075283;28;20453;-67
2022/07/16 11:29:21;;;;;;;2.27;1.30;;;34.50;36.40;;;;;;5075949;28;20472;-67
2022/07/16 11:31:48;;;;;;;1.40;1.30;;;34.30;37.70;;;;;;5074787;28;20477;-67
2022/07/16 11:34:18;;;;;;;2.60;2.40;;;34.00;37.20;;;;;;5075730;28;20478;-67
2022/07/16 11:36:49;;;;;;;5.40;3.73;;;33.90;36.80;;;;;;5074930;28;20548;-67
2022/07/16 11:39:17;;;;;;;1.90;1.60;;;33.60;37.90;;;;;;5074085;28;20913;-67
2022/07/16 11:41:45;;;;;;;1.67;1.30;;;33.30;37.80;;;;;;5074480;28;20560;-68
2022/07/16 11:44:14;;;;;;;3.80;1.53;;;32.80;37.20;;;;;;5074352;28;20858;-67
2022/07/16 11:46:48;;;;;;;2.60;1.20;;;32.50;38.10;;;;;;5073973;28;20453;-68
2022/07/16 11:49:24;;;;;;;1.27;1.17;;;32.20;38.70;;;;;;5074869;28;20790;-68
2022/07/16 11:51:52;;;;;;;4.43;1.30;;;31.90;37.90;;;;;;5074449;28;20466;-70
2022/07/16 11:54:18;;;;;;;2.57;1.70;;;31.80;40.20;;;;;;5074078;28;20505;-68
2022/07/16 11:56:45;;;;;;;1.40;1.30;;;31.90;40.10;;;;;;5075225;28;20458;-67
2022/07/16 11:59:23;;;;;;;3.30;3.00;;;31.60;40.50;;;;;;5074469;28;20438;-67
2022/07/16 12:02:00;;;;;;;1.33;1.23;;;31.70;40.00;;;;;;5074460;28;20477;-66
2022/07/16 12:04:35;;;;;;;1.30;1.20;;;31.50;40.30;;;;;;5074704;28;20439;-67
2022/07/16 12:07:03;;;;;;;3.20;1.60;;;31.50;39.70;;;;;;5074426;28;20450;-67
2022/07/16 12:09:32;;;;;;;1.50;1.40;;;31.30;40.80;;;;;;5074378;28;20454;-67
2022/07/16 12:12:00;;;;;;;2.23;2.00;;;31.40;40.50;;;;;;5074279;28;20477;-67
2022/07/16 12:14:42;;;;;;;1.87;1.87;;;31.40;40.40;;;;;;5073989;28;20481;-67
2022/07/16 12:17:24;;;;;;;4.03;1.20;;;31.50;40.40;;;;;;5074537;28;20460;-66
2022/07/16 12:20:14;;;;;;;2.07;1.97;;;31.30;40.30;;;;;;5073687;28;20438;-68
2022/07/16 12:22:50;;;;;;;2.67;1.20;;;31.40;40.00;;;;;;5074608;28;20431;-67
2022/07/16 12:25:22;;;;;;;5.07;1.63;;;31.50;39.70;;;;;;5074352;28;20454;-66
2022/07/16 12:27:51;;;;;;;1.47;1.30;;;31.30;39.30;;;;;;5073954;28;20503;-66
2022/07/16 12:30:18;;;;;;;1.30;1.30;;;31.20;39.70;;;;;;5073404;28;20944;-66
2022/07/16 12:32:51;;;;;;;1.20;1.10;;;31.20;42.60;;;;;;5073582;28;20470;-66
2022/07/16 12:35:38;;;;;;;1.73;1.30;;;31.30;41.10;;;;;;5073809;28;20446;-66
2022/07/16 12:38:06;;;;;;;2.50;1.43;;;31.10;40.90;;;;;;5073628;28;20442;-66
2022/07/16 12:40:33;;;;;;;1.50;1.40;;;31.20;41.50;;;;;;5073356;28;20814;-65
2022/07/16 12:43:00;;;;;;;1.30;1.30;;;31.40;41.00;;;;;;5073522;28;20453;-66
2022/07/16 12:45:27;;;;;;;1.60;1.50;;;31.30;41.30;;;;;;5074555;28;20481;-66
2022/07/16 12:47:55;;;;;;;2.73;1.60;;;31.20;39.70;;;;;;5074604;28;20457;-66
2022/07/16 12:50:23;;;;;;;1.70;1.33;;;31.00;40.30;;;;;;5075434;28;20454;-67
2022/07/16 12:52:49;;;;;;;4.60;1.80;;;30.90;41.30;;;;;;5077829;28;21063;-68
2022/07/16 13:00:47;;;;;;;1.40;1.30;;;31.20;40.90;;;;;;5042554;28;20999;-65
2022/07/16 13:03:15;;;;;;;3.80;1.30;;;31.30;41.20;;;;;;5077025;28;20434;-68
2022/07/16 13:05:41;;;;;;;1.60;1.50;;;31.30;41.90;;;;;;5077250;28;20448;-68
2022/07/16 13:08:08;;;;;;;1.97;1.50;;;31.20;41.10;;;;;;5076955;28;20449;-68
2022/07/16 13:10:37;;;;;;;2.37;1.60;;;30.90;41.20;;;;;;5076719;28;20495;-67
2022/07/16 13:13:03;;;;;;;2.77;1.50;;;30.50;41.50;;;;;;5076322;28;20988;-67
2022/07/16 13:15:30;;;;;;;1.90;1.53;;;30.50;42.30;;;;;;5078277;28;20454;-67
2022/07/16 13:17:57;;;;;;;4.00;1.70;;;30.30;41.90;;;;;;5076355;28;20824;-67
2022/07/16 13:20:25;;;;;;;2.10;1.47;;;30.20;41.20;;;;;;5076843;28;20473;-67
2022/07/16 13:22:52;;;;;;;1.80;1.70;;;30.20;43.00;;;;;;5077055;28;20457;-67
2022/07/16 13:25:19;;;;;;;2.27;1.50;;;30.00;42.50;;;;;;5076663;28;20854;-67
2022/07/16 13:27:46;;;;;;;2.77;1.63;;;30.00;43.10;;;;;;5076419;28;20454;-67
2022/07/16 13:30:13;;;;;;;2.60;1.70;;;30.20;43.40;;;;;;5076743;28;20488;-68
2022/07/16 13:32:39;;;;;;;2.87;1.57;;;30.40;42.50;;;;;;5076127;28;20457;-67
2022/07/16 13:35:07;;;;;;;1.60;1.50;;;30.60;42.80;;;;;;5075851;28;20990;-67
2022/07/16 13:37:35;;;;;;;3.23;1.70;;;30.80;42.20;;;;;;5076325;28;20512;-67
2022/07/16 13:40:03;;;;;;;2.43;1.90;;;30.60;42.00;;;;;;5076143;28;20454;-67
2022/07/16 13:42:29;;;;;;;3.07;1.80;;;30.40;40.80;;;;;;5075903;28;20470;-67
2022/07/16 13:44:56;;;;;;;7.93;3.07;;;30.20;41.10;;;;;;5075945;28;20450;-67
2022/07/16 13:47:23;;;;;;;3.40;2.43;;;30.10;41.40;;;;;;5076150;28;20454;-67
2022/07/16 13:49:50;;;;;;;2.40;1.70;;;30.20;43.10;;;;;;5077283;28;20457;-68
2022/07/16 13:52:16;;;;;;;1.80;1.70;;;30.20;41.80;;;;;;5077170;28;20473;-67
2022/07/16 13:54:44;;;;;;;3.17;2.13;;;30.40;43.00;;;;;;5078629;28;20485;-67
2022/07/16 13:59:55;;;;;;;3.73;1.73;;;30.50;41.70;;;;;;5080617;28;20544;-67
2022/07/16 14:02:22;;;;;;;2.00;1.90;;;30.50;42.50;;;;;;5079569;28;20484;-67
2022/07/16 14:04:49;;;;;;;2.50;2.30;;;30.60;42.30;;;;;;5078887;28;20862;-67
2022/07/16 14:07:16;;;;;;;2.07;1.93;;;30.80;41.70;;;;;;5077353;28;20461;-67
2022/07/16 14:09:44;;;;;;;1.90;1.80;;;30.90;42.00;;;;;;5078215;28;20454;-66
2022/07/16 14:12:11;;;;;;;2.00;1.80;;;30.90;41.10;;;;;;5077099;28;20481;-67
2022/07/16 14:14:38;;;;;;;3.40;1.80;;;30.70;41.30;;;;;;5075920;28;20881;-67
2022/07/16 14:17:05;;;;;;;3.17;1.70;;;30.70;41.90;;;;;;5076518;28;20457;-67
2022/07/16 14:19:32;;;;;;;2.40;1.60;;;30.80;42.50;;;;;;5076646;28;20461;-67
2022/07/16 14:21:58;;;;;;;5.50;2.30;;;30.90;41.90;;;;;;5075852;28;20805;-68
2022/07/16 14:24:25;;;;;;;1.60;1.50;;;30.70;40.60;;;;;;5075763;28;20453;-68
2022/07/16 14:26:53;;;;;;;2.00;1.80;;;30.60;41.40;;;;;;5075374;28;20455;-67
2022/07/16 14:29:20;;;;;;;2.30;2.20;;;30.40;41.10;;;;;;5075484;28;20450;-67
2022/07/16 14:31:48;;;;;;;2.10;2.00;;;30.40;41.10;;;;;;5075265;28;20474;-67
2022/07/16 14:34:14;;;;;;;4.50;2.10;;;30.50;41.80;;;;;;5075380;28;20587;-67
2022/07/16 14:36:42;;;;;;;4.93;2.17;;;30.50;42.50;;;;;;5075109;28;20465;-67
2022/07/16 14:39:09;;;;;;;2.10;1.90;;;30.30;42.20;;;;;;5075068;28;20511;-67
2022/07/16 14:41:35;;;;;;;3.00;2.00;;;30.20;42.60;;;;;;5075067;28;20483;-67
2022/07/16 14:44:05;;;;;;;1.87;1.60;;;30.10;42.60;;;;;;5075309;28;20450;-67
2022/07/16 14:46:32;;;;;;;4.10;2.37;;;30.20;42.10;;;;;;5074974;28;20816;-67
2022/07/16 14:48:59;;;;;;;2.40;1.77;;;30.30;43.40;;;;;;5074931;28;20486;-67
2022/07/16 14:51:26;;;;;;;3.13;1.77;;;30.40;42.70;;;;;;5074604;28;20999;-67
2022/07/16 14:53:53;;;;;;;3.57;1.80;;;30.40;42.30;;;;;;5074537;28;20501;-67
2022/07/16 14:56:20;;;;;;;2.00;1.67;;;30.40;42.30;;;;;;5074565;28;20449;-67
2022/07/16 14:58:47;;;;;;;2.00;1.80;;;30.20;42.50;;;;;;5075088;28;20450;-67
2022/07/16 15:01:16;;;;;;;6.33;2.07;;;30.00;42.50;;;;;;5074064;28;20509;-67
2022/07/16 15:03:43;;;;;;;1.93;1.83;;;29.90;42.60;;;;;;5074340;28;21006;-67
2022/07/16 15:06:09;;;;;;;3.67;2.10;;;29.80;42.60;;;;;;5074253;28;20450;-67
2022/07/16 15:08:36;;;;;;;2.23;2.03;;;29.60;43.20;;;;;;5074059;28;20788;-67
2022/07/16 15:11:04;;;;;;;2.50;2.30;;;29.50;43.70;;;;;;5074455;28;20502;-67
2022/07/16 15:13:30;;;;;;;3.30;1.90;;;29.40;43.30;;;;;;5073596;28;21093;-67
2022/07/16 15:15:57;;;;;;;2.63;2.10;;;29.40;43.20;;;;;;5074551;28;20454;-68
2022/07/16 15:18:25;;;;;;;2.43;2.23;;;29.30;42.80;;;;;;5074035;28;20962;-68
2022/07/16 15:20:52;;;;;;;2.67;2.20;;;29.20;42.70;;;;;;5073970;28;21038;-67
2022/07/16 15:23:18;;;;;;;4.37;2.20;;;29.20;43.30;;;;;;5074376;28;20453;-67
2022/07/16 15:25:45;;;;;;;1.90;1.80;;;29.10;43.80;;;;;;5074071;28;20445;-67
2022/07/16 15:28:13;;;;;;;1.90;1.80;;;29.20;43.60;;;;;;5074342;28;20450;-67
2022/07/16 15:30:40;;;;;;;2.03;1.80;;;29.30;43.40;;;;;;5074021;28;20508;-66
2022/07/16 15:35:52;;;;;;;5.00;2.00;;;29.50;44.60;;;;;;5073911;28;20877;-67
2022/07/16 15:38:19;;;;;;;2.20;2.00;;;29.40;43.10;;;;;;5073695;28;20937;-67
2022/07/16 15:40:46;;;;;;;5.10;1.87;;;29.10;43.40;;;;;;5074263;28;20473;-67
2022/07/16 15:43:12;;;;;;;2.83;1.90;;;29.10;43.60;;;;;;5074184;28;20450;-67
2022/07/16 15:45:39;;;;;;;2.50;2.30;;;29.10;44.00;;;;;;5073967;28;20503;-67
2022/07/16 15:48:06;;;;;;;2.40;2.20;;;29.00;43.40;;;;;;5074219;28;20503;-67
2022/07/16 15:50:33;;;;;;;3.97;1.90;;;28.90;44.00;;;;;;5073389;28;20446;-67
2022/07/16 15:53:01;;;;;;;2.57;2.37;;;28.90;44.30;;;;;;5073785;28;20854;-67
2022/07/16 15:55:28;;;;;;;2.20;2.00;;;29.00;43.60;;;;;;5073841;28;20485;-67
2022/07/16 15:57:55;;;;;;;4.00;2.17;;;29.10;44.00;;;;;;5073617;28;20485;-67
2022/07/16 16:00:22;;;;;;;2.63;1.90;;;29.20;43.50;;;;;;5073297;28;20522;-66
2022/07/16 16:02:49;;;;;;;2.17;2.00;;;29.30;43.50;;;;;;5073936;28;20443;-67
2022/07/16 16:05:16;;;;;;;4.67;1.77;;;29.40;43.10;;;;;;5074098;28;20451;-66
2022/07/16 16:07:42;;;;;;;2.77;2.00;;;29.50;42.90;;;;;;5074141;28;20462;-67
2022/07/16 16:10:11;;;;;;;2.30;2.10;;;29.50;43.30;;;;;;5073990;28;20811;-67
2022/07/16 16:12:42;;;;;;;2.37;2.27;;;29.40;43.90;;;;;;5073817;28;20553;-67
2022/07/16 16:15:09;;;;;;;5.00;2.50;;;29.20;43.60;;;;;;5073230;28;20990;-67
2022/07/16 16:17:36;;;;;;;3.53;2.27;;;29.20;43.90;;;;;;5073634;28;20458;-67
2022/07/16 16:20:03;;;;;;;2.17;2.07;;;29.10;44.60;;;;;;5073513;28;20474;-67
2022/07/16 16:22:31;;;;;;;3.20;2.90;;;29.00;45.10;;;;;;5073483;28;20473;-65
2022/07/16 16:24:58;;;;;;;6.87;2.20;;;28.80;45.20;;;;;;5075348;28;20446;-67
2022/07/16 16:27:26;;;;;;;3.07;2.63;;;28.50;45.00;;;;;;5077672;28;20457;-66
2022/07/16 16:29:54;;;;;;;3.97;2.30;;;28.40;45.30;;;;;;5077485;28;20457;-67
2022/07/16 16:32:21;;;;;;;2.23;2.13;;;28.40;45.10;;;;;;5077533;28;20474;-67
2022/07/16 16:34:48;;;;;;;3.37;1.90;;;28.40;45.50;;;;;;5077067;28;20481;-67
2022/07/16 16:37:15;;;;;;;2.97;2.37;;;28.40;44.90;;;;;;5077533;28;20819;-67
2022/07/16 16:39:42;;;;;;;3.23;2.23;;;28.30;44.80;;;;;;5077187;28;20454;-67
2022/07/16 16:42:09;;;;;;;2.70;2.50;;;28.10;44.80;;;;;;5077057;28;20985;-67
2022/07/16 16:44:38;;;;;;;6.13;2.40;;;28.10;44.90;;;;;;5077364;28;20457;-67
2022/07/16 16:47:04;;;;;;;4.20;3.87;;;28.00;45.40;;;;;;5077388;28;20450;-67
2022/07/16 16:49:31;;;;;;;3.50;2.27;;;28.00;45.40;;;;;;5077353;28;20446;-67
2022/07/16 16:51:58;;;;;;;3.20;2.93;;;28.00;45.30;;;;;;5077671;28;20844;-68
2022/07/16 16:54:25;;;;;;;1.97;1.87;;;28.00;45.40;;;;;;5077488;28;20476;-66
2022/07/16 16:56:52;;;;;;;3.73;1.90;;;27.90;46.00;;;;;;5077066;28;20460;-67
2022/07/16 16:59:19;;;;;;;2.90;2.63;;;27.80;45.70;;;;;;5076745;28;20941;-67
2022/07/16 17:01:47;;;;;;;2.70;2.10;;;27.80;45.80;;;;;;5077103;28;20863;-67
2022/07/16 17:04:14;;;;;;;3.00;2.10;;;27.80;46.00;;;;;;5077009;28;20438;-67
2022/07/16 17:06:41;;;;;;;5.67;2.53;;;27.70;46.30;;;;;;5076767;28;20457;-68